createdAt,value
2018-12-08T00:04:16.437Z,72.90
2018-12-08T00:08:51.342Z,69.20
2018-12-08T00:13:26.313Z,69.00
2018-12-08T00:18:01.196Z,59.40
2018-12-08T00:22:36.097Z,63.20
2018-12-08T00:27:10.988Z,63.30
2018-12-08T00:31:46.950Z,66.40
2018-12-08T00:36:21.827Z,68.00
2018-12-08T00:40:56.717Z,64.90
2018-12-08T00:45:31.575Z,59.20
2018-12-08T00:50:06.500Z,58.00
2018-12-08T00:54:41.364Z,59.60
2018-12-08T00:59:16.312Z,57.20
2018-12-08T01:03:51.899Z,58.30
2018-12-08T01:08:26.856Z,60.00
2018-12-08T01:13:01.735Z,58.90
2018-12-08T01:17:36.640Z,59.50
2018-12-08T01:22:11.549Z,55.00
2018-12-08T01:26:46.459Z,55.40
2018-12-08T01:31:21.378Z,59.60
2018-12-08T01:35:56.782Z,59.50
2018-12-08T01:40:31.735Z,57.40
2018-12-08T01:45:07.099Z,55.00
2018-12-08T01:49:41.988Z,57.90
2018-12-08T01:54:16.931Z,55.20
2018-12-08T01:58:51.836Z,53.80
2018-12-08T02:03:26.779Z,53.90
2018-12-08T02:08:01.681Z,54.10
2018-12-08T02:12:36.627Z,52.60
2018-12-08T02:17:11.576Z,53.00
2018-12-08T02:21:46.542Z,52.40
2018-12-08T02:26:21.491Z,54.50
2018-12-08T02:30:56.416Z,57.60
2018-12-08T02:35:31.396Z,57.60
2018-12-08T02:40:08.504Z,58.00
2018-12-08T02:44:43.437Z,58.50
2018-12-08T02:49:18.487Z,59.10
2018-12-08T02:53:53.468Z,56.90
2018-12-08T02:58:28.482Z,59.20
2018-12-08T03:03:03.401Z,62.60
2018-12-08T03:07:38.327Z,65.60
2018-12-08T03:12:13.602Z,66.50
2018-12-08T03:16:48.556Z,66.70
2018-12-08T03:21:23.530Z,64.30
2018-12-08T03:25:58.482Z,64.60
2018-12-08T03:30:33.484Z,63.60
2018-12-08T03:35:08.444Z,65.30
2018-12-08T03:39:43.394Z,63.60
2018-12-08T03:44:18.282Z,57.80
2018-12-08T03:48:53.157Z,63.20
2018-12-08T03:53:28.048Z,63.00
2018-12-08T03:58:02.920Z,63.70
2018-12-08T04:02:37.812Z,63.80
2018-12-08T04:07:12.712Z,61.10
2018-12-08T04:11:47.660Z,57.50
2018-12-08T04:16:22.550Z,53.60
2018-12-08T04:20:57.451Z,54.80
2018-12-08T04:25:32.373Z,55.30
2018-12-08T04:30:07.315Z,54.00
2018-12-08T04:34:42.299Z,53.80
2018-12-08T04:39:17.189Z,56.50
2018-12-08T04:43:52.380Z,55.70
2018-12-08T04:48:27.291Z,54.20
2018-12-08T04:53:02.185Z,55.50
2018-12-08T04:57:37.197Z,56.90
2018-12-08T05:02:12.119Z,56.20
2018-12-08T05:06:47.066Z,54.70
2018-12-08T05:11:21.940Z,52.40
2018-12-08T05:15:56.827Z,45.50
2018-12-08T05:20:31.702Z,51.40
2018-12-08T05:25:06.621Z,47.60
2018-12-08T05:29:41.527Z,46.90
2018-12-08T05:34:16.421Z,46.40
2018-12-08T05:38:51.305Z,47.40
2018-12-08T05:43:26.199Z,45.20
2018-12-08T05:48:01.140Z,43.50
2018-12-08T05:52:36.047Z,43.20
2018-12-08T05:57:10.976Z,43.40
2018-12-08T06:01:45.957Z,43.30
2018-12-08T06:06:20.840Z,44.80
2018-12-08T06:10:55.735Z,46.10
2018-12-08T06:15:30.627Z,49.20
2018-12-08T06:20:06.215Z,44.60
2018-12-08T06:24:41.087Z,43.20
2018-12-08T06:29:17.244Z,41.70
2018-12-08T06:33:52.119Z,44.90
2018-12-08T06:38:27.035Z,43.90
2018-12-08T06:43:01.902Z,48.50
2018-12-08T06:47:36.792Z,49.80
2018-12-08T06:52:11.990Z,49.80
2018-12-08T06:56:46.895Z,49.00
2018-12-08T07:01:21.776Z,45.70
2018-12-08T07:05:56.692Z,46.50
2018-12-08T07:10:31.579Z,46.30
2018-12-08T07:15:06.824Z,47.20
2018-12-08T07:19:41.688Z,47.30
2018-12-08T07:24:16.562Z,46.70
2018-12-08T07:28:51.437Z,47.00
2018-12-08T07:33:26.447Z,46.40
2018-12-08T07:38:01.416Z,44.80
2018-12-08T07:42:36.351Z,45.20
2018-12-08T07:47:11.307Z,44.30
2018-12-08T07:51:46.222Z,45.40
2018-12-08T07:56:21.131Z,45.90
2018-12-08T08:00:56.028Z,45.30
2018-12-08T08:05:30.900Z,45.60
2018-12-08T08:10:09.004Z,45.60
2018-12-08T08:14:43.899Z,46.60
2018-12-08T08:19:18.901Z,44.70
2018-12-08T08:23:53.831Z,45.30
2018-12-08T08:28:28.747Z,45.70
2018-12-08T08:33:03.624Z,44.80
2018-12-08T08:37:38.511Z,45.10
2018-12-08T08:42:13.396Z,46.60
2018-12-08T08:46:48.287Z,46.20
2018-12-08T08:51:23.427Z,47.40
2018-12-08T08:55:58.355Z,43.90
2018-12-08T09:00:33.331Z,44.90
2018-12-08T09:05:08.261Z,47.20
2018-12-08T09:09:43.324Z,47.70
2018-12-08T09:14:18.288Z,49.40
2018-12-08T09:18:53.211Z,49.40
2018-12-08T09:23:28.131Z,47.50
2018-12-08T09:28:03.067Z,46.60
2018-12-08T09:32:37.967Z,49.20
2018-12-08T09:37:12.892Z,50.10
2018-12-08T09:41:47.805Z,49.80
2018-12-08T09:46:22.679Z,50.50
2018-12-08T09:50:57.575Z,50.40
2018-12-08T09:55:32.447Z,49.90
2018-12-08T10:00:07.776Z,49.50
2018-12-08T10:04:42.671Z,50.80
2018-12-08T10:09:17.577Z,53.00
2018-12-08T10:13:52.449Z,54.20
2018-12-08T10:18:27.351Z,55.30
2018-12-08T10:23:02.242Z,55.40
2018-12-08T10:27:37.128Z,57.00
2018-12-08T10:32:12.000Z,53.40
2018-12-08T10:36:46.958Z,50.50
2018-12-08T10:41:21.899Z,50.20
2018-12-08T10:45:56.807Z,50.70
2018-12-08T10:50:31.692Z,54.20
2018-12-08T10:55:07.623Z,54.50
2018-12-08T10:59:42.558Z,56.10
2018-12-08T11:04:17.475Z,55.20
2018-12-08T11:08:52.411Z,56.70
2018-12-08T11:13:27.336Z,56.30
2018-12-08T11:18:02.496Z,57.40
2018-12-08T11:22:37.724Z,57.20
2018-12-08T11:27:12.612Z,58.60
2018-12-08T11:31:47.494Z,58.90
2018-12-08T11:36:22.374Z,59.70
2018-12-08T11:40:57.264Z,58.60
2018-12-08T11:45:32.123Z,58.50
2018-12-08T11:50:07.016Z,59.30
2018-12-08T11:54:41.905Z,56.70
2018-12-08T11:59:16.835Z,60.50
2018-12-08T12:03:51.750Z,59.90
2018-12-08T12:08:26.684Z,58.50
2018-12-08T12:13:01.618Z,58.50
2018-12-08T12:17:36.586Z,57.20
2018-12-08T12:22:11.507Z,56.90
2018-12-08T12:26:46.443Z,56.30
2018-12-08T12:31:21.368Z,57.70
2018-12-08T12:35:56.283Z,58.70
2018-12-08T12:40:31.815Z,58.10
2018-12-08T12:45:06.728Z,59.50
2018-12-08T12:49:41.628Z,56.30
2018-12-08T12:54:16.579Z,57.60
2018-12-08T12:58:51.535Z,56.90
2018-12-08T13:03:26.474Z,59.70
2018-12-08T13:08:01.812Z,62.20
2018-12-08T13:12:37.195Z,59.80
2018-12-08T13:17:12.179Z,58.50
2018-12-08T13:21:47.126Z,58.60
2018-12-08T13:26:22.091Z,60.80
2018-12-08T13:30:57.009Z,61.00
2018-12-08T13:35:53.341Z,62.30
2018-12-08T13:40:28.256Z,62.00
2018-12-08T13:45:15.006Z,64.00
2018-12-08T13:49:49.945Z,64.80
2018-12-08T13:54:36.167Z,64.40
2018-12-08T13:59:11.088Z,63.20
2018-12-08T14:03:45.955Z,58.90
2018-12-08T14:08:20.852Z,57.70
2018-12-08T14:12:55.725Z,62.60
2018-12-08T14:17:30.687Z,60.80
2018-12-08T14:22:05.584Z,65.40
2018-12-08T14:26:40.491Z,63.80
2018-12-08T14:31:15.579Z,66.30
2018-12-08T14:35:50.451Z,64.80
2018-12-08T14:40:25.338Z,66.50
2018-12-08T14:45:00.251Z,70.60
2018-12-08T14:49:35.123Z,69.60
2018-12-08T14:54:10.041Z,66.80
2018-12-08T14:58:44.941Z,65.10
2018-12-08T15:03:20.063Z,67.60
2018-12-08T15:07:54.943Z,64.80
2018-12-08T15:12:30.781Z,66.20
2018-12-08T15:17:05.700Z,68.80
2018-12-08T15:21:40.611Z,67.90
2018-12-08T15:26:15.530Z,70.10
2018-12-08T15:30:50.444Z,68.10
2018-12-08T15:35:25.329Z,68.50
2018-12-08T15:40:00.259Z,72.40
2018-12-08T15:44:35.130Z,69.30
2018-12-08T15:49:10.114Z,68.60
2018-12-08T15:53:45.019Z,65.60
2018-12-08T15:58:19.931Z,65.70
2018-12-08T16:02:54.815Z,65.00
2018-12-08T16:07:29.740Z,67.20
2018-12-08T16:12:04.652Z,65.40
2018-12-08T16:16:39.558Z,63.40
2018-12-08T16:21:14.467Z,63.90
2018-12-08T16:25:50.426Z,63.30
2018-12-08T16:30:25.332Z,63.90
2018-12-08T16:35:00.219Z,62.90
2018-12-08T16:39:35.096Z,63.30
2018-12-08T16:44:09.994Z,62.10
2018-12-08T16:48:44.902Z,60.20
2018-12-08T16:53:19.830Z,62.30
2018-12-08T16:57:54.757Z,63.30
2018-12-08T17:02:29.655Z,61.50
2018-12-08T17:07:04.546Z,62.60
2018-12-08T17:11:39.442Z,64.00
2018-12-08T17:16:14.316Z,63.00
2018-12-08T17:20:49.215Z,62.50
2018-12-08T17:25:24.099Z,63.40
2018-12-08T17:29:59.039Z,62.20
2018-12-08T17:34:33.916Z,63.30
2018-12-08T17:39:08.811Z,61.60
2018-12-08T17:43:43.695Z,59.50
2018-12-08T17:48:19.421Z,60.60
2018-12-08T17:52:54.287Z,61.10
2018-12-08T17:57:29.194Z,60.90
2018-12-08T18:02:04.720Z,59.70
2018-12-08T18:06:39.624Z,62.30
2018-12-08T18:11:14.505Z,60.90
2018-12-08T18:15:49.398Z,60.60
2018-12-08T18:20:24.271Z,60.50
2018-12-08T18:24:59.180Z,62.20
2018-12-08T18:29:34.186Z,60.80
2018-12-08T18:34:09.304Z,60.20
2018-12-08T18:38:44.179Z,59.80
2018-12-08T18:43:19.075Z,59.30
2018-12-08T18:47:53.952Z,61.30
2018-12-08T18:52:28.937Z,59.90
2018-12-08T18:57:03.811Z,60.30
2018-12-08T19:01:38.711Z,61.60
2018-12-08T19:06:15.019Z,63.70
2018-12-08T19:10:49.961Z,62.80
2018-12-08T19:15:24.856Z,61.40
2018-12-08T19:19:59.762Z,61.40
2018-12-08T19:24:34.692Z,60.20
2018-12-08T19:29:09.604Z,60.50
2018-12-08T19:33:45.080Z,61.70
2018-12-08T19:38:20.028Z,59.90
2018-12-08T19:42:54.900Z,62.10
2018-12-08T19:47:29.797Z,63.90
2018-12-08T19:52:04.711Z,66.20
2018-12-08T19:56:39.644Z,64.00
2018-12-08T20:01:14.527Z,63.00
2018-12-08T20:05:49.430Z,63.70
2018-12-08T20:10:24.331Z,64.50
2018-12-08T20:14:59.233Z,65.40
2018-12-08T20:19:34.736Z,67.30
2018-12-08T20:24:09.667Z,65.00
2018-12-08T20:28:44.562Z,66.10
2018-12-08T20:33:19.465Z,68.50
2018-12-08T20:37:54.350Z,66.70
2018-12-08T20:42:29.283Z,67.30
2018-12-08T20:47:04.180Z,67.60
2018-12-08T20:51:39.075Z,67.20
2018-12-08T20:56:13.984Z,68.10
2018-12-08T21:00:48.887Z,65.90
2018-12-08T21:05:23.967Z,69.00
2018-12-08T21:09:58.897Z,68.60
2018-12-08T21:14:33.763Z,69.60
2018-12-08T21:19:08.660Z,69.30
2018-12-08T21:23:43.546Z,68.60
2018-12-08T21:28:18.471Z,72.40
2018-12-08T21:32:53.346Z,71.90
2018-12-08T21:37:28.315Z,68.40
2018-12-08T21:42:03.252Z,71.60
2018-12-08T21:46:38.175Z,74.00
2018-12-08T21:51:13.053Z,76.10
2018-12-08T21:55:47.972Z,74.10
2018-12-08T22:00:22.971Z,76.10
2018-12-08T22:04:57.883Z,73.90
2018-12-08T22:09:33.040Z,73.20
2018-12-08T22:14:08.024Z,70.80
2018-12-08T22:18:42.983Z,71.80
2018-12-08T22:23:17.876Z,71.80
2018-12-08T22:27:52.844Z,71.10
2018-12-08T22:32:27.825Z,71.60
2018-12-08T22:37:04.312Z,72.30
2018-12-08T22:41:39.206Z,72.30
2018-12-08T22:46:14.072Z,73.70
2018-12-08T22:50:49.210Z,74.00
2018-12-08T22:55:24.099Z,74.10
2018-12-08T22:59:59.007Z,75.90
2018-12-08T23:04:33.879Z,78.30
2018-12-08T23:09:08.846Z,79.90
2018-12-08T23:13:43.720Z,79.10
2018-12-08T23:18:18.787Z,79.10
2018-12-08T23:22:53.665Z,76.00
2018-12-08T23:27:28.557Z,77.80
2018-12-08T23:32:03.448Z,78.20
2018-12-08T23:36:38.377Z,78.10
2018-12-08T23:41:13.244Z,78.30
2018-12-08T23:45:48.163Z,78.30
2018-12-08T23:50:23.057Z,77.80
2018-12-08T23:54:58.042Z,77.70
2018-12-08T23:59:32.988Z,77.80
